Port Columbus International Airport Columbus US
ICAO: KCMH
IATA: CMH
Category: Large
Scheduled Services: Yes

Elevation: 815 ft
TransAlt. 18000 ft.

Airport Communications:
COLUMBUS APP/DEP:33.822
COLUMBUS APP/DEP:118.2
ATIS:124.6
CLNC DEL:126.3
GND:121.9
DAYTON RDO:122.2
TWR:132.7
UNICOM:122.95

KCMH Zoom In..

If Map Doesn't Load, Click Here

Runways:

(A) RW 10L length 8000 ft width 150 ft
ILS 109.10 / hdg 101

(B) RW 10R length 10113 ft width 150 ft
ILS 111.75 / hdg 101

(C) RW 28L length 10113 ft width 150 ft
ILS 111.75 / hdg 281

(D) RW 28R length 8000 ft width 150 ft
ILS 109.10 / hdg 281

Location; KCMH
Day. 23 / Time. 07.51 Zulu
* Altimeter: 30.15
* Temperature: 12° c. 53.6°f.
* Wind from: 010° Speed 04 kn.
Dewpoint: 11° c.
Visibility: 10 Statute Miles.
Clouds: Overcast 25000 ft.

KCMH 230751Z 01004KT 10SM OVC250 12/11 A3015 RMK AO2 SLP210 T01220111


Wind From 010°
Speed 04 kn.

 
 
jpsmedia.com for Web Design worldairports.se 2018   terms of use